SCVV weather

Los Maitenes de Villa Vieja Airport
La Union, Los Ríos Region, Chile

Public forecast

Using degrees Celsius for public forecast. Weather courtesy of forecast.io.

Closest aviation weather report (METAR) to Los Maitenes de Villa Vieja Airport

Report is more than 2 hours old.

Closest report is Cañal Bajo Carlos - Hott Siebert Airport, 18.1 nm (33.5 km) SSW. Retrieved 2020/02/17 21:00 UTC (3 hours ago):

SCJO 172100Z VRB03KT 9999 BKN050 19/07 Q1018

Closest aviation forecast (TAF) to Los Maitenes de Villa Vieja Airport

Forecast is more than 12 hours old.

Closest forecast is Cañal Bajo Carlos - Hott Siebert Airport, 18.1 nm (33.5 km) SSW. Retrieved 2020/02/17 12:00 UTC (12 hours ago):

TAF SCJO 171015Z 1712/1800 18005KT 9999 SCT020 BKN050 TN10/1712Z TX19/1719Z BECMG 1717/1719 24008KT SCT040